sensor_id;sensor_type;location;lat;lon;timestamp;pressure;altitude;pressure_sealevel;temperature;humidity
22651;BME280;11492;42.646;23.400;2023-03-03T00:00:46;95133.06;;;5.58;75.91
22651;BME280;11492;42.646;23.400;2023-03-03T00:03:15;95130.56;;;5.48;76.05
22651;BME280;11492;42.646;23.400;2023-03-03T00:05:41;95126.41;;;5.47;76.99
22651;BME280;11492;42.646;23.400;2023-03-03T00:08:07;95123.47;;;5.43;76.48
22651;BME280;11492;42.646;23.400;2023-03-03T00:10:33;95125.81;;;5.53;76.78
22651;BME280;11492;42.646;23.400;2023-03-03T00:12:59;95122.97;;;5.56;76.26
22651;BME280;11492;42.646;23.400;2023-03-03T00:15:25;95120.69;;;5.53;75.97
22651;BME280;11492;42.646;23.400;2023-03-03T00:17:51;95125.81;;;5.53;76.47
22651;BME280;11492;42.646;23.400;2023-03-03T00:22:55;95121.53;;;5.54;76.44
22651;BME280;11492;42.646;23.400;2023-03-03T00:25:29;95114.72;;;5.45;76.50
22651;BME280;11492;42.646;23.400;2023-03-03T00:28:00;95118.72;;;5.47;77.13
22651;BME280;11492;42.646;23.400;2023-03-03T00:30:26;95120.41;;;5.39;77.02
22651;BME280;11492;42.646;23.400;2023-03-03T00:32:53;95116.69;;;5.34;77.10
22651;BME280;11492;42.646;23.400;2023-03-03T00:35:30;95116.53;;;5.35;77.35
22651;BME280;11492;42.646;23.400;2023-03-03T00:38:01;95110.25;;;5.30;77.26
22651;BME280;11492;42.646;23.400;2023-03-03T00:40:36;95103.94;;;5.24;77.68
22651;BME280;11492;42.646;23.400;2023-03-03T00:43:15;95102.56;;;5.30;77.34
22651;BME280;11492;42.646;23.400;2023-03-03T00:45:42;95099.41;;;5.36;77.91
22651;BME280;11492;42.646;23.400;2023-03-03T00:48:20;95090.88;;;5.45;76.93
22651;BME280;11492;42.646;23.400;2023-03-03T00:50:46;95084.66;;;5.47;76.45
22651;BME280;11492;42.646;23.400;2023-03-03T00:53:16;95085.44;;;5.47;76.53
22651;BME280;11492;42.646;23.400;2023-03-03T00:55:42;95085.44;;;5.47;76.47
22651;BME280;11492;42.646;23.400;2023-03-03T00:58:08;95088.00;;;5.47;76.26
22651;BME280;11492;42.646;23.400;2023-03-03T01:00:35;95078.34;;;5.42;76.19
22651;BME280;11492;42.646;23.400;2023-03-03T01:03:03;95073.25;;;5.42;76.15
22651;BME280;11492;42.646;23.400;2023-03-03T01:05:29;95070.19;;;5.38;76.46
22651;BME280;11492;42.646;23.400;2023-03-03T01:07:55;95068.13;;;5.24;76.28
22651;BME280;11492;42.646;23.400;2023-03-03T01:10:20;95063.81;;;5.25;77.35
22651;BME280;11492;42.646;23.400;2023-03-03T01:12:46;95062.91;;;5.17;76.96
22651;BME280;11492;42.646;23.400;2023-03-03T01:15:13;95063.34;;;5.12;77.33
22651;BME280;11492;42.646;23.400;2023-03-03T01:17:39;95054.75;;;5.13;77.38
22651;BME280;11492;42.646;23.400;2023-03-03T01:20:06;95063.50;;;5.11;77.50
22651;BME280;11492;42.646;23.400;2023-03-03T01:22:32;95059.78;;;5.05;78.00
22651;BME280;11492;42.646;23.400;2023-03-03T01:24:57;95067.66;;;5.12;77.54
22651;BME280;11492;42.646;23.400;2023-03-03T01:27:23;95063.66;;;5.09;77.46
22651;BME280;11492;42.646;23.400;2023-03-03T01:29:48;95061.75;;;5.11;78.60
22651;BME280;11492;42.646;23.400;2023-03-03T01:32:14;95045.91;;;5.08;77.95
22651;BME280;11492;42.646;23.400;2023-03-03T01:34:39;95060.72;;;5.04;78.07
22651;BME280;11492;42.646;23.400;2023-03-03T01:37:04;95053.69;;;5.06;78.31
22651;BME280;11492;42.646;23.400;2023-03-03T01:39:30;95053.22;;;5.03;77.92
22651;BME280;11492;42.646;23.400;2023-03-03T01:41:55;95043.41;;;4.98;78.24
22651;BME280;11492;42.646;23.400;2023-03-03T01:44:21;95041.59;;;5.08;78.10
22651;BME280;11492;42.646;23.400;2023-03-03T01:47:06;95044.22;;;5.16;78.21
22651;BME280;11492;42.646;23.400;2023-03-03T01:49:39;95048.25;;;5.19;78.01
22651;BME280;11492;42.646;23.400;2023-03-03T01:52:13;95039.09;;;5.16;77.91
22651;BME280;11492;42.646;23.400;2023-03-03T01:54:46;95048.09;;;5.20;77.97
22651;BME280;11492;42.646;23.400;2023-03-03T01:57:20;95054.59;;;5.32;77.72
22651;BME280;11492;42.646;23.400;2023-03-03T01:59:49;95053.06;;;5.39;77.52
22651;BME280;11492;42.646;23.400;2023-03-03T02:02:16;95047.00;;;5.40;76.80
22651;BME280;11492;42.646;23.400;2023-03-03T02:04:41;95038.00;;;5.36;76.42
22651;BME280;11492;42.646;23.400;2023-03-03T02:07:10;95046.31;;;5.38;76.53
22651;BME280;11492;42.646;23.400;2023-03-03T02:12:48;95043.34;;;5.25;77.64
22651;BME280;11492;42.646;23.400;2023-03-03T02:17:46;95036.31;;;5.27;76.92
22651;BME280;11492;42.646;23.400;2023-03-03T02:23:06;95039.47;;;5.38;76.75
22651;BME280;11492;42.646;23.400;2023-03-03T02:28:05;95045.41;;;5.39;76.47
22651;BME280;11492;42.646;23.400;2023-03-03T02:30:36;95047.81;;;5.40;76.66
22651;BME280;11492;42.646;23.400;2023-03-03T02:33:02;95050.63;;;5.37;76.96
22651;BME280;11492;42.646;23.400;2023-03-03T02:35:35;95037.63;;;5.31;76.99
22651;BME280;11492;42.646;23.400;2023-03-03T02:40:35;95047.94;;;5.21;77.09
22651;BME280;11492;42.646;23.400;2023-03-03T02:43:03;95039.41;;;5.13;77.91
22651;BME280;11492;42.646;23.400;2023-03-03T02:45:30;95045.59;;;5.11;77.49
22651;BME280;11492;42.646;23.400;2023-03-03T02:47:55;95025.13;;;5.11;77.36
22651;BME280;11492;42.646;23.400;2023-03-03T02:50:21;95046.91;;;5.15;77.69
22651;BME280;11492;42.646;23.400;2023-03-03T02:52:46;95038.59;;;5.13;77.14
22651;BME280;11492;42.646;23.400;2023-03-03T02:55:11;95040.03;;;5.15;77.66
22651;BME280;11492;42.646;23.400;2023-03-03T02:57:37;95042.59;;;5.15;77.66
22651;BME280;11492;42.646;23.400;2023-03-03T03:00:03;95040.63;;;5.09;77.29
22651;BME280;11492;42.646;23.400;2023-03-03T03:02:28;95038.06;;;5.09;77.72
22651;BME280;11492;42.646;23.400;2023-03-03T03:04:54;95040.13;;;5.06;77.45
22651;BME280;11492;42.646;23.400;2023-03-03T03:07:19;95038.66;;;5.03;77.67
22651;BME280;11492;42.646;23.400;2023-03-03T03:09:45;95033.53;;;5.03;78.02
22651;BME280;11492;42.646;23.400;2023-03-03T03:12:10;95026.25;;;5.08;77.96
22651;BME280;11492;42.646;23.400;2023-03-03T03:14:36;95034.03;;;5.07;78.27
22651;BME280;11492;42.646;23.400;2023-03-03T03:17:01;95036.97;;;5.12;78.62
22651;BME280;11492;42.646;23.400;2023-03-03T03:19:27;95021.63;;;5.12;77.64
22651;BME280;11492;42.646;23.400;2023-03-03T03:21:53;95032.59;;;5.21;77.69
22651;BME280;11492;42.646;23.400;2023-03-03T03:24:18;95035.28;;;5.20;77.96
22651;BME280;11492;42.646;23.400;2023-03-03T03:26:44;95033.75;;;5.27;77.81
22651;BME280;11492;42.646;23.400;2023-03-03T03:29:09;95015.34;;;5.23;78.10
22651;BME280;11492;42.646;23.400;2023-03-03T03:31:35;95033.47;;;5.30;77.50
22651;BME280;11492;42.646;23.400;2023-03-03T03:34:00;95029.75;;;5.24;77.88
22651;BME280;11492;42.646;23.400;2023-03-03T03:36:26;95027.41;;;5.31;77.72
22651;BME280;11492;42.646;23.400;2023-03-03T03:38:52;95023.22;;;5.30;77.88
22651;BME280;11492;42.646;23.400;2023-03-03T03:41:17;95017.97;;;5.31;77.85
22651;BME280;11492;42.646;23.400;2023-03-03T03:43:43;95018.47;;;5.35;77.88
22651;BME280;11492;42.646;23.400;2023-03-03T03:46:08;95016.50;;;5.29;78.06
22651;BME280;11492;42.646;23.400;2023-03-03T03:48:34;95009.19;;;5.34;77.91
22651;BME280;11492;42.646;23.400;2023-03-03T03:51:00;95011.25;;;5.30;78.54
22651;BME280;11492;42.646;23.400;2023-03-03T03:53:25;95012.25;;;5.37;78.60
22651;BME280;11492;42.646;23.400;2023-03-03T03:55:51;95006.22;;;5.38;78.32
22651;BME280;11492;42.646;23.400;2023-03-03T03:58:17;95017.25;;;5.39;78.88
22651;BME280;11492;42.646;23.400;2023-03-03T04:00:44;95014.69;;;5.39;78.41
22651;BME280;11492;42.646;23.400;2023-03-03T04:03:10;95009.56;;;5.39;78.51
22651;BME280;11492;42.646;23.400;2023-03-03T04:05:36;95007.00;;;5.39;78.29
22651;BME280;11492;42.646;23.400;2023-03-03T04:08:02;95007.94;;;5.38;78.50
22651;BME280;11492;42.646;23.400;2023-03-03T04:10:27;94998.00;;;5.35;78.64
22651;BME280;11492;42.646;23.400;2023-03-03T04:12:53;95001.53;;;5.34;78.36
22651;BME280;11492;42.646;23.400;2023-03-03T04:15:18;95009.03;;;5.35;79.56
22651;BME280;11492;42.646;23.400;2023-03-03T04:17:44;94997.28;;;5.25;79.25
22651;BME280;11492;42.646;23.400;2023-03-03T04:20:12;95008.84;;;5.29;79.65
22651;BME280;11492;42.646;23.400;2023-03-03T04:22:37;94997.88;;;5.19;79.39
22651;BME280;11492;42.646;23.400;2023-03-03T04:25:04;95009.72;;;5.20;79.34
22651;BME280;11492;42.646;23.400;2023-03-03T04:27:36;95005.56;;;5.19;79.96
22651;BME280;11492;42.646;23.400;2023-03-03T04:30:04;94999.19;;;5.23;80.56
22651;BME280;11492;42.646;23.400;2023-03-03T04:32:30;95006.28;;;5.29;80.38
22651;BME280;11492;42.646;23.400;2023-03-03T04:34:58;94999.19;;;5.23;79.96
22651;BME280;11492;42.646;23.400;2023-03-03T04:37:23;94993.56;;;5.20;79.90
22651;BME280;11492;42.646;23.400;2023-03-03T04:39:49;94999.19;;;5.23;80.53
22651;BME280;11492;42.646;23.400;2023-03-03T04:42:14;95000.81;;;5.24;80.75
22651;BME280;11492;42.646;23.400;2023-03-03T04:44:39;94997.81;;;5.28;81.18
22651;BME280;11492;42.646;23.400;2023-03-03T04:47:05;94995.09;;;5.30;80.87
22651;BME280;11492;42.646;23.400;2023-03-03T04:49:30;94994.13;;;5.31;80.96
22651;BME280;11492;42.646;23.400;2023-03-03T04:51:56;94990.47;;;5.33;81.41
22651;BME280;11492;42.646;23.400;2023-03-03T04:54:21;94997.69;;;5.38;81.28
22651;BME280;11492;42.646;23.400;2023-03-03T04:56:47;95002.69;;;5.39;81.58
22651;BME280;11492;42.646;23.400;2023-03-03T04:59:12;95003.97;;;5.43;80.60
22651;BME280;11492;42.646;23.400;2023-03-03T05:01:38;95007.50;;;5.42;80.44
22651;BME280;11492;42.646;23.400;2023-03-03T05:04:04;95006.53;;;5.43;80.15
22651;BME280;11492;42.646;23.400;2023-03-03T05:06:29;94995.97;;;5.38;79.32
22651;BME280;11492;42.646;23.400;2023-03-03T05:08:55;95007.66;;;5.41;79.31
22651;BME280;11492;42.646;23.400;2023-03-03T05:11:20;95008.28;;;5.43;79.57
22651;BME280;11492;42.646;23.400;2023-03-03T05:13:45;95010.56;;;5.46;80.17
22651;BME280;11492;42.646;23.400;2023-03-03T05:16:11;95010.72;;;5.44;79.96
22651;BME280;11492;42.646;23.400;2023-03-03T05:18:37;95011.53;;;5.45;80.07
22651;BME280;11492;42.646;23.400;2023-03-03T05:21:02;95011.66;;;5.43;79.35
22651;BME280;11492;42.646;23.400;2023-03-03T05:23:28;95014.38;;;5.42;79.48
22651;BME280;11492;42.646;23.400;2023-03-03T05:25:54;95017.09;;;5.40;79.66
22651;BME280;11492;42.646;23.400;2023-03-03T05:28:19;95022.81;;;5.34;79.94
22651;BME280;11492;42.646;23.400;2023-03-03T05:30:45;95020.53;;;5.31;79.81
22651;BME280;11492;42.646;23.400;2023-03-03T05:33:15;95007.28;;;5.36;80.20
22651;BME280;11492;42.646;23.400;2023-03-03T05:35:41;95015.91;;;5.35;80.28
22651;BME280;11492;42.646;23.400;2023-03-03T05:38:06;95009.19;;;5.34;80.24
22651;BME280;11492;42.646;23.400;2023-03-03T05:40:32;95017.16;;;5.31;80.01
22651;BME280;11492;42.646;23.400;2023-03-03T05:42:57;95014.97;;;5.36;79.74
22651;BME280;11492;42.646;23.400;2023-03-03T05:45:23;95011.16;;;5.40;79.90
22651;BME280;11492;42.646;23.400;2023-03-03T05:47:50;95021.88;;;5.43;79.67
22651;BME280;11492;42.646;23.400;2023-03-03T05:50:16;95018.09;;;5.47;80.31
22651;BME280;11492;42.646;23.400;2023-03-03T05:52:42;95026.13;;;5.52;79.82
22651;BME280;11492;42.646;23.400;2023-03-03T05:55:08;95018.44;;;5.52;79.55
22651;BME280;11492;42.646;23.400;2023-03-03T05:57:33;95020.94;;;5.61;79.49
22651;BME280;11492;42.646;23.400;2023-03-03T06:00:03;95030.22;;;5.62;79.56
22651;BME280;11492;42.646;23.400;2023-03-03T06:02:29;95018.09;;;5.64;79.83
22651;BME280;11492;42.646;23.400;2023-03-03T06:04:55;95020.06;;;5.70;79.15
22651;BME280;11492;42.646;23.400;2023-03-03T06:07:20;95018.78;;;5.74;79.66
22651;BME280;11492;42.646;23.400;2023-03-03T06:09:46;95016.25;;;5.74;79.31
22651;BME280;11492;42.646;23.400;2023-03-03T06:12:11;95019.94;;;5.79;79.72
22651;BME280;11492;42.646;23.400;2023-03-03T06:14:36;95020.47;;;5.83;79.67
22651;BME280;11492;42.646;23.400;2023-03-03T06:17:02;95026.75;;;5.88;79.54
22651;BME280;11492;42.646;23.400;2023-03-03T06:19:27;95028.56;;;5.96;79.32
22651;BME280;11492;42.646;23.400;2023-03-03T06:21:53;95036.25;;;5.96;79.76
22651;BME280;11492;42.646;23.400;2023-03-03T06:24:19;95033.69;;;5.96;79.20
22651;BME280;11492;42.646;23.400;2023-03-03T06:26:44;95030.19;;;5.97;78.89
22651;BME280;11492;42.646;23.400;2023-03-03T06:29:09;95031.22;;;6.11;80.41
22651;BME280;11492;42.646;23.400;2023-03-03T06:31:35;95026.13;;;6.19;79.62
22651;BME280;11492;42.646;23.400;2023-03-03T06:34:01;95030.19;;;6.29;79.49
22651;BME280;11492;42.646;23.400;2023-03-03T06:36:26;95029.09;;;6.32;78.41
22651;BME280;11492;42.646;23.400;2023-03-03T06:38:52;95028.94;;;6.33;78.19
22651;BME280;11492;42.646;23.400;2023-03-03T06:41:17;95040.28;;;6.31;77.13
22651;BME280;11492;42.646;23.400;2023-03-03T06:43:43;95035.69;;;6.75;79.52
22651;BME280;11492;42.646;23.400;2023-03-03T06:46:09;95034.72;;;6.76;76.87
22651;BME280;11492;42.646;23.400;2023-03-03T06:48:34;95034.09;;;6.82;76.43
22651;BME280;11492;42.646;23.400;2023-03-03T06:51:01;95034.41;;;6.87;76.21
22651;BME280;11492;42.646;23.400;2023-03-03T06:53:27;95038.00;;;7.01;76.25
22651;BME280;11492;42.646;23.400;2023-03-03T06:55:57;95032.53;;;6.96;75.37
22651;BME280;11492;42.646;23.400;2023-03-03T06:58:23;95030.59;;;6.98;75.41
22651;BME280;11492;42.646;23.400;2023-03-03T07:00:55;95025.16;;;7.01;75.79
22651;BME280;11492;42.646;23.400;2023-03-03T07:03:23;95031.25;;;7.08;76.18
22651;BME280;11492;42.646;23.400;2023-03-03T07:05:49;95029.69;;;7.15;75.39
22651;BME280;11492;42.646;23.400;2023-03-03T07:08:18;95037.56;;;7.29;75.30
22651;BME280;11492;42.646;23.400;2023-03-03T07:10:46;95033.72;;;7.33;73.51
22651;BME280;11492;42.646;23.400;2023-03-03T07:15:40;95031.31;;;7.40;72.56
22651;BME280;11492;42.646;23.400;2023-03-03T07:18:24;95040.97;;;7.46;72.93
22651;BME280;11492;42.646;23.400;2023-03-03T07:20:51;95038.06;;;7.41;72.41
22651;BME280;11492;42.646;23.400;2023-03-03T07:23:37;95035.50;;;7.41;73.60
22651;BME280;11492;42.646;23.400;2023-03-03T07:26:17;95030.03;;;7.44;73.29
22651;BME280;11492;42.646;23.400;2023-03-03T07:28:49;95032.91;;;7.33;72.96
22651;BME280;11492;42.646;23.400;2023-03-03T07:33:59;95025.22;;;7.25;74.02
22651;BME280;11492;42.646;23.400;2023-03-03T07:36:34;95026.81;;;7.26;73.73
22651;BME280;11492;42.646;23.400;2023-03-03T07:41:40;95021.69;;;7.34;73.29
22651;BME280;11492;42.646;23.400;2023-03-03T07:44:36;95028.59;;;7.25;72.99
22651;BME280;11492;42.646;23.400;2023-03-03T07:47:18;95028.25;;;7.21;73.24
22651;BME280;11492;42.646;23.400;2023-03-03T07:49:47;95026.78;;;7.18;73.77
22651;BME280;11492;42.646;23.400;2023-03-03T07:52:23;95017.81;;;7.22;73.96
22651;BME280;11492;42.646;23.400;2023-03-03T07:54:50;95019.41;;;7.23;73.76
22651;BME280;11492;42.646;23.400;2023-03-03T08:04:53;95016.88;;;7.39;72.57
22651;BME280;11492;42.646;23.400;2023-03-03T08:07:20;95021.69;;;7.42;72.40
22651;BME280;11492;42.646;23.400;2023-03-03T08:09:56;95013.34;;;7.40;72.60
22651;BME280;11492;42.646;23.400;2023-03-03T08:12:41;95013.66;;;7.37;71.82
22651;BME280;11492;42.646;23.400;2023-03-03T08:15:25;95014.16;;;7.24;72.53
22651;BME280;11492;42.646;23.400;2023-03-03T08:17:54;95020.09;;;7.25;73.18
22651;BME280;11492;42.646;23.400;2023-03-03T08:20:49;95014.44;;;7.29;72.92
22651;BME280;11492;42.646;23.400;2023-03-03T08:23:17;95018.16;;;7.35;73.07
22651;BME280;11492;42.646;23.400;2023-03-03T08:25:43;95002.75;;;7.27;72.87
22651;BME280;11492;42.646;23.400;2023-03-03T08:28:10;95010.16;;;7.30;73.50
22651;BME280;11492;42.646;23.400;2023-03-03T08:30:37;95006.94;;;7.36;73.59
22651;BME280;11492;42.646;23.400;2023-03-03T08:33:02;95002.09;;;7.33;72.59
22651;BME280;11492;42.646;23.400;2023-03-03T08:35:28;95008.84;;;7.34;72.53
22651;BME280;11492;42.646;23.400;2023-03-03T08:37:54;95002.44;;;7.38;72.81
22651;BME280;11492;42.646;23.400;2023-03-03T08:40:19;95008.53;;;7.45;73.19
22651;BME280;11492;42.646;23.400;2023-03-03T08:42:44;95007.72;;;7.44;73.72
22651;BME280;11492;42.646;23.400;2023-03-03T08:45:10;94999.22;;;7.36;73.22
22651;BME280;11492;42.646;23.400;2023-03-03T08:47:35;95009.03;;;7.40;73.43
22651;BME280;11492;42.646;23.400;2023-03-03T08:50:01;95012.84;;;7.44;73.12
22651;BME280;11492;42.646;23.400;2023-03-03T08:52:27;95012.72;;;7.46;71.95
22651;BME280;11492;42.646;23.400;2023-03-03T08:54:52;95013.97;;;7.49;72.82
22651;BME280;11492;42.646;23.400;2023-03-03T08:57:18;95012.72;;;7.53;72.18
22651;BME280;11492;42.646;23.400;2023-03-03T08:59:43;95010.47;;;7.58;72.35
22651;BME280;11492;42.646;23.400;2023-03-03T09:02:12;95012.72;;;7.61;73.09
22651;BME280;11492;42.646;23.400;2023-03-03T09:04:37;95009.81;;;7.64;72.84
22651;BME280;11492;42.646;23.400;2023-03-03T09:07:03;95014.31;;;7.70;72.65
22651;BME280;11492;42.646;23.400;2023-03-03T09:09:28;95008.50;;;7.76;72.56
22651;BME280;11492;42.646;23.400;2023-03-03T09:11:57;95004.97;;;7.85;71.75
22651;BME280;11492;42.646;23.400;2023-03-03T09:14:27;95005.44;;;7.96;71.37
22651;BME280;11492;42.646;23.400;2023-03-03T09:16:54;95010.75;;;8.02;70.67
22651;BME280;11492;42.646;23.400;2023-03-03T09:19:25;94995.94;;;8.12;70.28
22651;BME280;11492;42.646;23.400;2023-03-03T09:21:52;94998.84;;;8.17;69.00
22651;BME280;11492;42.646;23.400;2023-03-03T09:24:28;94993.06;;;8.15;69.67
22651;BME280;11492;42.646;23.400;2023-03-03T09:26:55;95004.28;;;8.22;70.18
22651;BME280;11492;42.646;23.400;2023-03-03T09:29:29;94997.69;;;8.27;70.85
22651;BME280;11492;42.646;23.400;2023-03-03T09:34:43;94988.84;;;8.30;69.56
22651;BME280;11492;42.646;23.400;2023-03-03T09:39:49;94997.13;;;8.47;68.17
22651;BME280;11492;42.646;23.400;2023-03-03T09:42:36;95000.06;;;8.74;71.89
22651;BME280;11492;42.646;23.400;2023-03-03T09:56:36;95003.97;;;9.00;66.64
22651;BME280;11492;42.646;23.400;2023-03-03T10:10:01;94986.19;;;8.83;66.03
22651;BME280;11492;42.646;23.400;2023-03-03T10:12:30;94991.16;;;8.85;66.65
22651;BME280;11492;42.646;23.400;2023-03-03T10:15:13;94990.53;;;8.83;67.29
22651;BME280;11492;42.646;23.400;2023-03-03T10:33:15;94986.84;;;8.47;67.73
22651;BME280;11492;42.646;23.400;2023-03-03T10:36:06;94974.97;;;8.46;67.40
22651;BME280;11492;42.646;23.400;2023-03-03T10:38:51;94969.63;;;8.48;68.71
22651;BME280;11492;42.646;23.400;2023-03-03T10:44:15;94975.09;;;8.53;68.39
22651;BME280;11492;42.646;23.400;2023-03-03T10:47:21;94964.47;;;8.56;68.23
22651;BME280;11492;42.646;23.400;2023-03-03T10:52:50;94971.47;;;8.40;68.33
22651;BME280;11492;42.646;23.400;2023-03-03T10:55:26;94962.75;;;8.41;69.28
22651;BME280;11492;42.646;23.400;2023-03-03T10:58:13;94949.41;;;8.45;68.44
22651;BME280;11492;42.646;23.400;2023-03-03T11:01:03;94957.06;;;8.53;68.12
22651;BME280;11492;42.646;23.400;2023-03-03T11:06:00;94947.09;;;8.58;67.99
22651;BME280;11492;42.646;23.400;2023-03-03T11:08:31;94963.75;;;8.32;67.81
22651;BME280;11492;42.646;23.400;2023-03-03T11:35:25;94934.97;;;7.75;70.22
22651;BME280;11492;42.646;23.400;2023-03-03T11:43:46;94936.53;;;7.99;72.73
22651;BME280;11492;42.646;23.400;2023-03-03T11:46:17;94929.75;;;8.14;73.03
22651;BME280;11492;42.646;23.400;2023-03-03T11:56:55;94929.72;;;8.22;71.95
22651;BME280;11492;42.646;23.400;2023-03-03T12:23:44;94932.53;;;8.05;71.58
22651;BME280;11492;42.646;23.400;2023-03-03T12:29:24;94918.19;;;8.10;72.00
22651;BME280;11492;42.646;23.400;2023-03-03T12:34:59;94928.41;;;8.34;72.66
22651;BME280;11492;42.646;23.400;2023-03-03T12:40:24;94929.41;;;8.25;72.28
22651;BME280;11492;42.646;23.400;2023-03-03T12:48:40;94928.63;;;8.54;73.24
22651;BME280;11492;42.646;23.400;2023-03-03T12:56:44;94928.06;;;8.67;73.90
22651;BME280;11492;42.646;23.400;2023-03-03T12:59:20;94919.53;;;8.36;71.89
22651;BME280;11492;42.646;23.400;2023-03-03T13:05:03;94921.56;;;8.11;73.21
22651;BME280;11492;42.646;23.400;2023-03-03T13:07:47;94918.31;;;8.24;74.32
22651;BME280;11492;42.646;23.400;2023-03-03T13:12:51;94921.31;;;8.36;75.95
22651;BME280;11492;42.646;23.400;2023-03-03T13:20:28;94912.63;;;8.37;74.86
22651;BME280;11492;42.646;23.400;2023-03-03T13:26:01;94918.94;;;8.64;76.11
22651;BME280;11492;42.646;23.400;2023-03-03T13:31:36;94916.06;;;8.81;74.41
22651;BME280;11492;42.646;23.400;2023-03-03T13:34:02;94912.13;;;8.71;73.85
22651;BME280;11492;42.646;23.400;2023-03-03T13:36:41;94912.44;;;8.68;74.83
22651;BME280;11492;42.646;23.400;2023-03-03T13:39:21;94909.13;;;8.60;75.53
22651;BME280;11492;42.646;23.400;2023-03-03T13:42:18;94915.09;;;8.60;75.89
22651;BME280;11492;42.646;23.400;2023-03-03T13:44:47;94905.28;;;8.56;75.77
22651;BME280;11492;42.646;23.400;2023-03-03T13:47:32;94904.19;;;8.50;75.06
22651;BME280;11492;42.646;23.400;2023-03-03T13:55:43;94910.09;;;8.29;75.92
22651;BME280;11492;42.646;23.400;2023-03-03T14:03:52;94909.31;;;8.28;76.51
22651;BME280;11492;42.646;23.400;2023-03-03T14:06:22;94913.47;;;8.29;76.43
22651;BME280;11492;42.646;23.400;2023-03-03T14:09:03;94907.66;;;8.27;76.88
22651;BME280;11492;42.646;23.400;2023-03-03T14:14:17;94911.41;;;8.25;77.45
22651;BME280;11492;42.646;23.400;2023-03-03T14:16:57;94918.75;;;8.28;76.82
22651;BME280;11492;42.646;23.400;2023-03-03T14:25:09;94904.66;;;8.16;77.32
22651;BME280;11492;42.646;23.400;2023-03-03T14:27:39;94902.09;;;8.16;77.23
22651;BME280;11492;42.646;23.400;2023-03-03T14:33:01;94908.41;;;8.06;76.51
22651;BME280;11492;42.646;23.400;2023-03-03T14:35:36;94903.59;;;8.03;76.30
22651;BME280;11492;42.646;23.400;2023-03-03T14:38:08;94906.66;;;7.98;76.67
22651;BME280;11492;42.646;23.400;2023-03-03T14:40:37;94905.06;;;7.97;77.73
22651;BME280;11492;42.646;23.400;2023-03-03T14:43:26;94900.53;;;7.99;77.90
22651;BME280;11492;42.646;23.400;2023-03-03T14:46:21;94899.91;;;7.97;78.13
22651;BME280;11492;42.646;23.400;2023-03-03T14:49:17;94907.28;;;8.00;78.01
22651;BME280;11492;42.646;23.400;2023-03-03T14:51:52;94902.81;;;7.95;77.74
22651;BME280;11492;42.646;23.400;2023-03-03T14:54:27;94903.78;;;7.94;77.34
22651;BME280;11492;42.646;23.400;2023-03-03T14:57:14;94899.75;;;7.91;76.66
22651;BME280;11492;42.646;23.400;2023-03-03T15:00:01;94898.94;;;7.91;77.62
22651;BME280;11492;42.646;23.400;2023-03-03T15:02:36;94899.59;;;7.93;77.27
22651;BME280;11492;42.646;23.400;2023-03-03T15:08:07;94893.50;;;7.86;76.96
22651;BME280;11492;42.646;23.400;2023-03-03T15:10:36;94901.88;;;7.80;76.74
22651;BME280;11492;42.646;23.400;2023-03-03T15:18:23;94900.59;;;7.76;78.31
22651;BME280;11492;42.646;23.400;2023-03-03T15:21:09;94890.53;;;7.67;78.41
22651;BME280;11492;42.646;23.400;2023-03-03T15:24:12;94897.88;;;7.70;79.20
22651;BME280;11492;42.646;23.400;2023-03-03T15:29:42;94900.31;;;7.63;78.46
22651;BME280;11492;42.646;23.400;2023-03-03T15:32:25;94898.56;;;7.56;78.75
22651;BME280;11492;42.646;23.400;2023-03-03T15:45:47;94902.09;;;7.55;77.69
22651;BME280;11492;42.646;23.400;2023-03-03T16:04:32;94912.38;;;7.47;77.96
22651;BME280;11492;42.646;23.400;2023-03-03T16:18:36;94938.22;;;7.53;79.21
22651;BME280;11492;42.646;23.400;2023-03-03T16:23:51;94932.91;;;7.55;79.70
22651;BME280;11492;42.646;23.400;2023-03-03T16:26:38;94939.19;;;7.52;79.89
22651;BME280;11492;42.646;23.400;2023-03-03T16:32:23;94939.81;;;7.54;80.55
22651;BME280;11492;42.646;23.400;2023-03-03T16:40:19;94945.63;;;7.56;80.72
22651;BME280;11492;42.646;23.400;2023-03-03T16:45:38;94952.19;;;7.51;80.40
22651;BME280;11492;42.646;23.400;2023-03-03T16:48:19;94955.56;;;7.51;80.95
22651;BME280;11492;42.646;23.400;2023-03-03T17:00:10;94973.53;;;7.51;80.60
22651;BME280;11492;42.646;23.400;2023-03-03T17:02:18;94976.13;;;7.51;81.49
22651;BME280;11492;42.646;23.400;2023-03-03T17:04:55;94982.06;;;7.52;80.96
22651;BME280;11492;42.646;23.400;2023-03-03T17:07:47;94973.53;;;7.51;81.04
22651;BME280;11492;42.646;23.400;2023-03-03T17:10:50;94973.84;;;7.48;80.89
22651;BME280;11492;42.646;23.400;2023-03-03T17:18:50;94967.44;;;7.45;80.01
22651;BME280;11492;42.646;23.400;2023-03-03T17:29:46;94986.06;;;7.31;80.04
22651;BME280;11492;42.646;23.400;2023-03-03T17:32:50;94987.50;;;7.33;80.38
22651;BME280;11492;42.646;23.400;2023-03-03T17:45:40;95003.06;;;7.32;80.15
22651;BME280;11492;42.646;23.400;2023-03-03T18:02:36;95015.28;;;7.46;80.42
22651;BME280;11492;42.646;23.400;2023-03-03T18:22:05;95038.56;;;7.52;80.23
22651;BME280;11492;42.646;23.400;2023-03-03T18:24:38;95040.97;;;7.53;79.95
22651;BME280;11492;42.646;23.400;2023-03-03T18:37:55;95046.41;;;7.43;80.64
22651;BME280;11492;42.646;23.400;2023-03-03T18:40:29;95048.00;;;7.44;80.36
22651;BME280;11492;42.646;23.400;2023-03-03T18:42:54;95049.94;;;7.42;81.03
22651;BME280;11492;42.646;23.400;2023-03-03T18:50:37;95058.63;;;7.41;80.44
22651;BME280;11492;42.646;23.400;2023-03-03T18:53:17;95063.44;;;7.59;81.12
22651;BME280;11492;42.646;23.400;2023-03-03T18:55:45;95070.50;;;7.42;80.44
22651;BME280;11492;42.646;23.400;2023-03-03T19:00:46;95071.16;;;7.67;80.33
22651;BME280;11492;42.646;23.400;2023-03-03T19:05:56;95067.94;;;7.65;79.82
22651;BME280;11492;42.646;23.400;2023-03-03T19:08:26;95069.06;;;7.63;79.70
22651;BME280;11492;42.646;23.400;2023-03-03T19:10:54;95076.59;;;7.64;80.31